createdAt,value
2023-03-12T00:02:36.165Z,2.50
2023-03-12T00:05:40.750Z,2.47
2023-03-12T00:08:44.689Z,2.23
2023-03-12T00:11:48.523Z,2.00
2023-03-12T00:14:52.169Z,2.57
2023-03-12T00:17:57.209Z,2.60
2023-03-12T00:21:00.806Z,2.57
2023-03-12T00:24:05.630Z,2.67
2023-03-12T00:27:09.323Z,2.77
2023-03-12T00:30:14.150Z,2.43
2023-03-12T00:33:19.153Z,2.57
2023-03-12T00:36:27.220Z,2.67
2023-03-12T00:39:30.874Z,2.93
2023-03-12T00:42:34.798Z,2.57
2023-03-12T00:45:38.933Z,2.83
2023-03-12T00:48:44.653Z,2.43
2023-03-12T00:51:48.750Z,2.70
2023-03-12T00:54:52.642Z,2.40
2023-03-12T00:57:56.549Z,2.60
2023-03-12T01:01:00.460Z,2.30
2023-03-12T01:04:05.914Z,2.40
2023-03-12T01:07:09.658Z,2.53
2023-03-12T01:10:18.410Z,2.83
2023-03-12T01:13:22.730Z,2.53
2023-03-12T01:16:28.627Z,2.60
2023-03-12T01:19:33.985Z,2.70
2023-03-12T01:22:38.619Z,2.67
2023-03-12T01:25:42.956Z,2.30
2023-03-12T01:28:46.652Z,2.67
2023-03-12T01:31:52.308Z,2.60
2023-03-12T01:34:58.903Z,2.60
2023-03-12T01:38:03.281Z,2.70
2023-03-12T01:41:06.990Z,2.33
2023-03-12T01:44:15.978Z,2.43
2023-03-12T01:47:19.981Z,2.30
2023-03-12T01:50:25.103Z,2.60
2023-03-12T01:53:30.787Z,2.60
2023-03-12T01:56:37.694Z,3.03
2023-03-12T01:59:48.207Z,2.33
2023-03-12T02:02:56.302Z,2.60
2023-03-12T02:06:10.029Z,2.60
2023-03-12T02:09:15.517Z,2.60
2023-03-12T02:12:19.744Z,3.10
2023-03-12T02:15:23.999Z,3.03
2023-03-12T02:18:28.497Z,2.70
2023-03-12T02:21:37.481Z,2.80
2023-03-12T02:24:48.319Z,2.73
2023-03-12T02:27:54.123Z,2.93
2023-03-12T02:31:03.656Z,2.47
2023-03-12T02:34:08.642Z,2.80
2023-03-12T02:37:12.400Z,2.50
2023-03-12T02:40:26.337Z,2.97
2023-03-12T02:43:32.025Z,3.10
2023-03-12T02:46:41.300Z,2.90
2023-03-12T02:49:45.079Z,2.97
2023-03-12T02:52:48.643Z,3.00
2023-03-12T02:55:52.360Z,3.00
2023-03-12T02:58:57.384Z,3.93
2023-03-12T03:02:03.353Z,3.27
2023-03-12T03:05:08.413Z,2.97
2023-03-12T03:08:12.188Z,3.43
2023-03-12T03:11:15.995Z,3.63
2023-03-12T03:14:21.419Z,3.10
2023-03-12T03:17:25.165Z,3.03
2023-03-12T03:20:28.783Z,3.33
2023-03-12T03:23:33.281Z,3.23
2023-03-12T03:26:37.164Z,3.63
2023-03-12T03:29:42.635Z,3.20
2023-03-12T03:32:46.342Z,3.67
2023-03-12T03:35:50.232Z,3.00
2023-03-12T03:38:53.913Z,3.30
2023-03-12T03:41:57.625Z,3.37
2023-03-12T03:45:02.630Z,3.50
2023-03-12T03:48:07.225Z,3.53
2023-03-12T03:51:12.732Z,3.63
2023-03-12T03:54:16.430Z,3.67
2023-03-12T03:57:20.197Z,3.47
2023-03-12T04:00:25.642Z,3.20
2023-03-12T04:03:29.534Z,3.57
2023-03-12T04:06:33.209Z,3.33
2023-03-12T04:09:37.479Z,3.47
2023-03-12T04:12:41.189Z,3.60
2023-03-12T04:15:50.824Z,3.83
2023-03-12T04:18:54.817Z,3.60
2023-03-12T04:21:58.366Z,3.37
2023-03-12T04:25:02.173Z,3.50
2023-03-12T04:28:06.708Z,3.73
2023-03-12T04:31:13.699Z,3.33
2023-03-12T04:34:17.364Z,3.57
2023-03-12T04:37:20.967Z,4.07
2023-03-12T04:40:24.673Z,3.70
2023-03-12T04:43:29.058Z,4.23
2023-03-12T04:46:34.087Z,4.43
2023-03-12T04:49:39.404Z,4.70
2023-03-12T04:52:43.090Z,4.10
2023-03-12T04:55:46.691Z,4.20
2023-03-12T04:58:50.625Z,4.00
2023-03-12T05:01:55.598Z,3.70
2023-03-12T05:04:59.293Z,3.70
2023-03-12T05:08:02.973Z,3.90
2023-03-12T05:11:07.295Z,3.90
2023-03-12T05:14:12.727Z,4.20
2023-03-12T05:17:17.834Z,4.63
2023-03-12T05:20:21.881Z,4.67
2023-03-12T05:23:25.607Z,4.33
2023-03-12T05:26:32.567Z,4.30
2023-03-12T05:29:36.666Z,4.07
2023-03-12T05:32:41.786Z,4.00
2023-03-12T05:35:45.476Z,3.80
2023-03-12T05:38:49.191Z,4.03
2023-03-12T05:41:54.069Z,4.70
2023-03-12T05:44:59.342Z,4.13
2023-03-12T05:48:04.528Z,4.10
2023-03-12T05:51:08.297Z,4.13
2023-03-12T05:54:12.027Z,4.70
2023-03-12T05:57:15.909Z,4.20
2023-03-12T06:00:21.770Z,3.67
2023-03-12T06:03:26.971Z,4.23
2023-03-12T06:06:32.803Z,4.80
2023-03-12T06:09:37.711Z,4.53
2023-03-12T06:12:41.712Z,5.17
2023-03-12T06:15:45.409Z,3.97
2023-03-12T06:18:54.206Z,4.23
2023-03-12T06:21:58.078Z,4.57
2023-03-12T06:25:01.786Z,4.47
2023-03-12T06:28:05.839Z,3.73
2023-03-12T06:31:10.119Z,4.43
2023-03-12T06:34:16.889Z,4.33
2023-03-12T06:37:20.542Z,3.77
2023-03-12T06:40:24.194Z,4.40
2023-03-12T06:43:30.279Z,4.47
2023-03-12T06:46:34.402Z,4.80
2023-03-12T06:49:39.738Z,4.20
2023-03-12T06:52:43.370Z,4.63
2023-03-12T06:55:48.168Z,4.10
2023-03-12T06:58:51.765Z,4.47
2023-03-12T07:01:55.383Z,4.03
2023-03-12T07:05:00.422Z,4.10
2023-03-12T07:08:04.627Z,4.53
2023-03-12T07:11:08.442Z,4.30
2023-03-12T07:14:12.078Z,4.43
2023-03-12T07:17:15.683Z,4.50
2023-03-12T07:20:21.284Z,4.93
2023-03-12T07:23:25.257Z,3.87
2023-03-12T07:26:28.959Z,4.10
2023-03-12T07:29:32.564Z,4.17
2023-03-12T07:32:36.879Z,4.57
2023-03-12T07:35:42.210Z,4.27
2023-03-12T07:38:45.869Z,4.13
2023-03-12T07:41:50.469Z,4.57
2023-03-12T07:44:54.111Z,4.13
2023-03-12T07:47:57.952Z,4.60
2023-03-12T07:51:03.422Z,4.17
2023-03-12T07:54:10.670Z,3.90
2023-03-12T07:57:14.646Z,4.17
2023-03-12T08:00:18.911Z,4.10
2023-03-12T08:03:22.754Z,4.47
2023-03-12T08:06:28.743Z,4.40
2023-03-12T08:09:33.270Z,4.27
2023-03-12T08:12:38.367Z,4.57
2023-03-12T08:15:42.081Z,4.40
2023-03-12T08:18:45.860Z,4.27
2023-03-12T08:21:52.031Z,4.20
2023-03-12T08:24:55.642Z,5.53
2023-03-12T08:27:59.274Z,4.90
2023-03-12T08:31:03.725Z,4.27
2023-03-12T08:34:07.369Z,4.33
2023-03-12T08:37:12.392Z,5.50
2023-03-12T08:40:16.013Z,4.57
2023-03-12T08:43:19.745Z,4.60
2023-03-12T08:46:23.529Z,4.80
2023-03-12T08:49:27.426Z,4.87
2023-03-12T08:52:32.611Z,4.30
2023-03-12T08:55:36.222Z,4.80
2023-03-12T08:58:39.969Z,4.57
2023-03-12T09:01:44.050Z,4.53
2023-03-12T09:04:49.886Z,4.13
2023-03-12T09:07:55.247Z,4.77
2023-03-12T09:10:58.901Z,3.90
2023-03-12T09:14:36.653Z,4.07
2023-03-12T09:17:27.422Z,4.40
2023-03-12T09:20:31.292Z,3.90
2023-03-12T09:23:36.410Z,4.93
2023-03-12T09:26:40.166Z,3.90
2023-03-12T09:29:58.717Z,3.80
2023-03-12T09:33:03.862Z,4.17
2023-03-12T09:36:08.575Z,3.87
2023-03-12T09:39:14.386Z,3.43
2023-03-12T09:42:26.698Z,3.43
2023-03-12T09:45:37.558Z,3.77
2023-03-12T09:48:41.992Z,3.03
2023-03-12T09:51:52.559Z,3.03
2023-03-12T09:55:08.762Z,3.33
2023-03-12T09:58:19.548Z,2.93
2023-03-12T10:01:39.216Z,3.73
2023-03-12T10:04:58.857Z,3.70
2023-03-12T10:08:24.588Z,3.70
2023-03-12T10:11:50.997Z,3.03
2023-03-12T10:15:16.369Z,3.40
2023-03-12T10:18:39.511Z,3.30
2023-03-12T10:21:54.052Z,3.30
2023-03-12T10:25:12.200Z,3.23
2023-03-12T10:28:23.023Z,3.03
2023-03-12T10:31:35.935Z,3.20
2023-03-12T10:34:45.184Z,3.10
2023-03-12T10:37:52.258Z,3.30
2023-03-12T10:40:55.892Z,3.03
2023-03-12T10:44:08.994Z,3.17
2023-03-12T10:47:31.597Z,3.27
2023-03-12T10:50:37.627Z,3.30
2023-03-12T10:53:44.966Z,2.83
2023-03-12T10:56:52.055Z,4.57
2023-03-12T11:00:12.018Z,3.93
2023-03-12T11:03:24.213Z,2.87
2023-03-12T11:06:31.674Z,3.10
2023-03-12T11:09:35.444Z,3.00
2023-03-12T11:12:41.530Z,3.10
2023-03-12T11:15:46.586Z,2.83
2023-03-12T11:18:59.959Z,2.93
2023-03-12T11:22:07.310Z,2.80
2023-03-12T11:25:25.509Z,3.10
2023-03-12T11:28:40.665Z,2.70
2023-03-12T11:31:57.249Z,2.67
2023-03-12T11:35:01.757Z,3.90
2023-03-12T11:38:17.427Z,3.00
2023-03-12T11:41:53.815Z,3.07
2023-03-12T11:45:14.202Z,3.20
2023-03-12T11:48:30.647Z,3.10
2023-03-12T11:51:52.653Z,3.50
2023-03-12T11:55:39.720Z,3.33
2023-03-12T11:59:04.155Z,3.60
2023-03-12T12:02:36.456Z,2.87
2023-03-12T12:05:56.775Z,3.20
2023-03-12T12:09:26.417Z,3.83
2023-03-12T12:12:55.678Z,3.37
2023-03-12T12:16:19.233Z,3.40
2023-03-12T12:19:48.535Z,3.90
2023-03-12T12:23:15.905Z,3.90
2023-03-12T12:26:30.348Z,3.83
2023-03-12T12:29:56.137Z,5.40
2023-03-12T12:33:24.522Z,3.90
2023-03-12T12:36:35.325Z,3.63
2023-03-12T12:39:49.929Z,4.00
2023-03-12T12:43:12.481Z,4.43
2023-03-12T12:46:22.803Z,4.10
2023-03-12T12:49:40.877Z,5.50
2023-03-12T12:52:46.138Z,6.57
2023-03-12T12:56:09.910Z,5.13
2023-03-12T12:59:39.486Z,5.33
2023-03-12T13:02:48.228Z,5.00
2023-03-12T13:06:02.502Z,5.03
2023-03-12T13:09:21.736Z,5.43
2023-03-12T13:12:34.847Z,5.97
2023-03-12T13:15:49.141Z,5.20
2023-03-12T13:19:02.052Z,5.30
2023-03-12T13:22:22.588Z,6.53
2023-03-12T13:25:49.973Z,5.40
2023-03-12T13:29:36.700Z,5.30
2023-03-12T13:33:14.242Z,5.77
2023-03-12T13:36:28.289Z,6.13
2023-03-12T13:39:35.745Z,6.80
2023-03-12T13:42:43.749Z,6.60
2023-03-12T13:46:09.173Z,6.53
2023-03-12T13:49:21.643Z,5.00
2023-03-12T13:52:31.027Z,6.37
2023-03-12T13:55:37.837Z,6.30
2023-03-12T13:58:50.494Z,7.50
2023-03-12T14:02:06.146Z,6.18
2023-03-12T14:05:15.158Z,7.07
2023-03-12T14:08:59.194Z,6.83
2023-03-12T14:12:12.827Z,6.27
2023-03-12T14:15:49.104Z,6.50
2023-03-12T14:18:56.226Z,6.33
2023-03-12T14:22:08.467Z,7.70
2023-03-12T14:25:24.573Z,6.37
2023-03-12T14:28:32.069Z,6.43
2023-03-12T14:31:38.368Z,6.87
2023-03-12T14:34:48.579Z,7.00
2023-03-12T14:38:01.494Z,7.53
2023-03-12T14:41:14.815Z,7.40
2023-03-12T14:44:26.595Z,8.97
2023-03-12T14:47:31.407Z,9.10
2023-03-12T14:50:42.995Z,8.97
2023-03-12T14:53:46.729Z,9.90
2023-03-12T14:56:50.789Z,10.50
2023-03-12T14:59:56.657Z,10.17
2023-03-12T15:03:06.600Z,10.47
2023-03-12T15:06:21.048Z,11.23
2023-03-12T15:09:29.690Z,10.73
2023-03-12T15:12:39.303Z,11.83
2023-03-12T15:15:47.529Z,11.13
2023-03-12T15:18:53.044Z,11.23
2023-03-12T15:21:58.671Z,11.27
2023-03-12T15:25:05.509Z,11.23
2023-03-12T15:28:30.281Z,10.60
2023-03-12T15:31:44.948Z,11.40
2023-03-12T15:34:50.159Z,11.77
2023-03-12T15:38:03.753Z,12.20
2023-03-12T15:41:21.581Z,11.03
2023-03-12T15:44:30.207Z,12.23
2023-03-12T15:47:41.579Z,11.83
2023-03-12T15:50:47.314Z,12.97
2023-03-12T15:54:02.433Z,13.07
2023-03-12T15:57:25.198Z,11.70
2023-03-12T16:00:32.685Z,12.50
2023-03-12T16:03:37.727Z,12.83
2023-03-12T16:06:44.602Z,13.07
2023-03-12T16:09:50.134Z,13.87
2023-03-12T16:13:03.222Z,13.67
2023-03-12T16:16:08.305Z,13.33
2023-03-12T16:19:15.646Z,14.73
2023-03-12T16:22:20.466Z,15.33
2023-03-12T16:25:27.661Z,15.90
2023-03-12T16:28:32.359Z,15.93
2023-03-12T16:31:36.356Z,16.93
2023-03-12T16:34:40.232Z,15.63
2023-03-12T16:37:44.988Z,16.63
2023-03-12T16:40:53.025Z,16.20
2023-03-12T16:43:56.982Z,17.07
2023-03-12T16:47:02.241Z,16.83
2023-03-12T16:50:18.619Z,18.67
2023-03-12T16:53:23.566Z,17.63
2023-03-12T16:56:31.510Z,19.57
2023-03-12T16:59:38.182Z,19.03
2023-03-12T17:02:43.001Z,19.23
2023-03-12T17:05:47.600Z,19.20
2023-03-12T17:08:53.959Z,21.00
2023-03-12T17:12:00.475Z,21.00
2023-03-12T17:15:08.981Z,22.07
2023-03-12T17:18:13.836Z,21.33
2023-03-12T17:21:20.751Z,21.97
2023-03-12T17:24:28.063Z,21.60
2023-03-12T17:27:34.029Z,21.07
2023-03-12T17:30:38.839Z,22.50
2023-03-12T17:33:43.309Z,21.70
2023-03-12T17:36:47.020Z,21.27
2023-03-12T17:39:50.787Z,20.73
2023-03-12T17:42:56.287Z,22.60
2023-03-12T17:46:05.753Z,21.57
2023-03-12T17:49:10.479Z,21.77
2023-03-12T17:52:14.236Z,22.07
2023-03-12T17:55:18.549Z,22.60
2023-03-12T17:58:23.910Z,23.27
2023-03-12T18:01:28.472Z,22.93
2023-03-12T18:04:33.315Z,21.77
2023-03-12T18:07:37.903Z,22.33
2023-03-12T18:10:42.040Z,21.20
2023-03-12T18:13:49.500Z,20.30
2023-03-12T18:16:54.258Z,20.80
2023-03-12T18:19:59.305Z,21.33
2023-03-12T18:23:03.068Z,21.00
2023-03-12T18:26:10.241Z,21.03
2023-03-12T18:29:15.412Z,20.30
2023-03-12T18:32:20.314Z,20.53
2023-03-12T18:35:30.560Z,19.77
2023-03-12T18:38:35.797Z,18.37
2023-03-12T18:41:42.026Z,19.13
2023-03-12T18:44:48.132Z,21.27
2023-03-12T18:47:52.590Z,18.90
2023-03-12T18:50:57.101Z,19.63
2023-03-12T18:54:03.146Z,19.37
2023-03-12T18:57:07.287Z,18.27
2023-03-12T19:00:18.278Z,18.43
2023-03-12T19:03:24.424Z,17.03
2023-03-12T19:06:29.648Z,17.70
2023-03-12T19:09:37.625Z,16.40
2023-03-12T19:12:52.087Z,15.13
2023-03-12T19:16:03.948Z,15.20
2023-03-12T19:19:07.651Z,14.93
2023-03-12T19:22:11.256Z,14.30
2023-03-12T19:25:15.839Z,12.77
2023-03-12T19:28:19.616Z,13.17
2023-03-12T19:31:25.430Z,13.13
2023-03-12T19:34:29.349Z,12.07
2023-03-12T19:37:32.917Z,12.20
2023-03-12T19:40:36.887Z,12.13
2023-03-12T19:43:41.311Z,12.33
2023-03-12T19:46:46.468Z,12.23
2023-03-12T19:49:50.285Z,11.87
2023-03-12T19:52:53.949Z,12.23
2023-03-12T19:55:57.536Z,12.17
2023-03-12T19:59:01.130Z,11.53
2023-03-12T20:02:06.417Z,12.00
2023-03-12T20:05:12.075Z,10.80
2023-03-12T20:08:15.893Z,10.20
2023-03-12T20:11:19.595Z,11.20
2023-03-12T20:14:23.318Z,11.67
2023-03-12T20:17:28.520Z,11.97
2023-03-12T20:20:32.224Z,11.70
2023-03-12T20:23:36.078Z,14.03
2023-03-12T20:26:40.267Z,12.57
2023-03-12T20:29:46.205Z,13.73
2023-03-12T20:32:51.219Z,11.90
2023-03-12T20:35:56.162Z,13.73
2023-03-12T20:38:59.917Z,11.90
2023-03-12T20:42:03.629Z,12.53
2023-03-12T20:45:08.874Z,11.80
2023-03-12T20:48:13.882Z,13.93
2023-03-12T20:51:18.015Z,12.73
2023-03-12T20:54:22.016Z,14.77
2023-03-12T20:57:25.692Z,12.80
2023-03-12T21:00:29.424Z,14.70
2023-03-12T21:03:35.394Z,13.23
2023-03-12T21:06:39.187Z,13.23
2023-03-12T21:09:42.823Z,14.10
2023-03-12T21:12:47.349Z,12.47
2023-03-12T21:15:52.129Z,13.53
2023-03-12T21:18:59.745Z,13.70
2023-03-12T21:22:03.313Z,13.87
2023-03-12T21:25:08.243Z,13.17
2023-03-12T21:28:12.160Z,12.53
2023-03-12T21:31:18.201Z,11.90
2023-03-12T21:34:23.711Z,11.70
2023-03-12T21:37:28.363Z,11.27
2023-03-12T21:40:32.020Z,11.67
2023-03-12T21:43:35.713Z,11.70
2023-03-12T21:46:39.567Z,9.80
2023-03-12T21:49:44.897Z,9.03
2023-03-12T21:52:49.460Z,8.77
2023-03-12T21:55:57.506Z,8.50
2023-03-12T21:59:01.092Z,7.90
2023-03-12T22:02:04.822Z,7.73
2023-03-12T22:05:11.612Z,8.20
2023-03-12T22:08:15.214Z,8.47
2023-03-12T22:11:19.092Z,6.87
2023-03-12T22:14:24.224Z,7.63
2023-03-12T22:17:27.858Z,6.97
2023-03-12T22:20:34.858Z,7.90
2023-03-12T22:23:38.780Z,6.77
2023-03-12T22:26:42.416Z,6.90
2023-03-12T22:29:46.127Z,6.20
2023-03-12T22:32:49.925Z,7.83
2023-03-12T22:35:55.850Z,6.83
2023-03-12T22:38:59.510Z,6.60
2023-03-12T22:42:03.265Z,6.10
2023-03-12T22:45:08.940Z,6.80
2023-03-12T22:48:12.633Z,7.70
2023-03-12T22:51:17.603Z,6.93
2023-03-12T22:54:21.295Z,6.40
2023-03-12T22:57:25.018Z,6.37
2023-03-12T23:00:28.718Z,7.73
2023-03-12T23:03:36.148Z,7.70
2023-03-12T23:06:41.258Z,7.00
2023-03-12T23:09:45.100Z,7.57
2023-03-12T23:12:48.684Z,7.13
2023-03-12T23:15:53.203Z,7.57
2023-03-12T23:18:57.339Z,7.07
2023-03-12T23:22:02.352Z,7.47
2023-03-12T23:25:06.966Z,7.27
2023-03-12T23:28:10.633Z,7.70
2023-03-12T23:31:16.153Z,8.00
2023-03-12T23:34:20.142Z,7.60
2023-03-12T23:37:25.304Z,8.87
2023-03-12T23:40:28.937Z,7.73
2023-03-12T23:43:32.979Z,8.43
2023-03-12T23:46:36.609Z,7.73
2023-03-12T23:49:40.229Z,8.60
2023-03-12T23:52:45.152Z,8.37
2023-03-12T23:55:57.415Z,8.77
2023-03-12T23:59:01.180Z,8.77
